sensor_id;sensor_type;location;lat;lon;timestamp;P1;durP1;ratioP1;P2;durP2;ratioP2
67456;SDS011;54319;52.038;4.640;2023-03-01T00:14:00;23.42;;;12.73;;
67456;SDS011;54319;52.038;4.640;2023-03-01T00:16:42;20.13;;;13.07;;
67456;SDS011;54319;52.038;4.640;2023-03-01T00:23:07;23.13;;;12.85;;
67456;SDS011;54319;52.038;4.640;2023-03-01T00:39:14;20.85;;;13.38;;
67456;SDS011;54319;52.038;4.640;2023-03-01T00:42:06;21.75;;;13.88;;
67456;SDS011;54319;52.038;4.640;2023-03-01T00:47:01;18.70;;;12.55;;
67456;SDS011;54319;52.038;4.640;2023-03-01T00:49:27;25.52;;;15.13;;
67456;SDS011;54319;52.038;4.640;2023-03-01T00:51:54;23.23;;;13.90;;
67456;SDS011;54319;52.038;4.640;2023-03-01T00:54:21;24.08;;;14.57;;
67456;SDS011;54319;52.038;4.640;2023-03-01T00:56:48;22.02;;;14.98;;
67456;SDS011;54319;52.038;4.640;2023-03-01T00:59:14;23.92;;;15.13;;
67456;SDS011;54319;52.038;4.640;2023-03-01T01:01:42;22.90;;;14.65;;
67456;SDS011;54319;52.038;4.640;2023-03-01T01:04:10;26.05;;;15.40;;
67456;SDS011;54319;52.038;4.640;2023-03-01T01:06:39;24.40;;;14.63;;
67456;SDS011;54319;52.038;4.640;2023-03-01T01:09:08;23.25;;;15.02;;
67456;SDS011;54319;52.038;4.640;2023-03-01T01:11:42;27.45;;;14.98;;
67456;SDS011;54319;52.038;4.640;2023-03-01T01:14:09;25.38;;;14.95;;
67456;SDS011;54319;52.038;4.640;2023-03-01T01:16:36;24.13;;;14.77;;
67456;SDS011;54319;52.038;4.640;2023-03-01T01:19:04;22.85;;;14.73;;
67456;SDS011;54319;52.038;4.640;2023-03-01T01:21:31;22.23;;;14.82;;
67456;SDS011;54319;52.038;4.640;2023-03-01T01:23:57;25.80;;;15.05;;
67456;SDS011;54319;52.038;4.640;2023-03-01T01:26:26;25.58;;;15.32;;
67456;SDS011;54319;52.038;4.640;2023-03-01T01:28:54;27.77;;;16.15;;
67456;SDS011;54319;52.038;4.640;2023-03-01T01:31:21;27.25;;;14.95;;
67456;SDS011;54319;52.038;4.640;2023-03-01T01:33:49;24.05;;;14.15;;
67456;SDS011;54319;52.038;4.640;2023-03-01T01:36:17;25.57;;;14.87;;
67456;SDS011;54319;52.038;4.640;2023-03-01T01:38:44;24.00;;;13.90;;
67456;SDS011;54319;52.038;4.640;2023-03-01T01:41:11;26.42;;;14.90;;
67456;SDS011;54319;52.038;4.640;2023-03-01T01:43:40;25.60;;;16.08;;
67456;SDS011;54319;52.038;4.640;2023-03-01T01:46:10;26.52;;;16.77;;
67456;SDS011;54319;52.038;4.640;2023-03-01T01:48:46;25.27;;;16.13;;
67456;SDS011;54319;52.038;4.640;2023-03-01T01:51:18;30.08;;;17.02;;
67456;SDS011;54319;52.038;4.640;2023-03-01T01:53:50;30.77;;;16.75;;
67456;SDS011;54319;52.038;4.640;2023-03-01T01:56:19;30.65;;;17.23;;
67456;SDS011;54319;52.038;4.640;2023-03-01T01:58:48;30.30;;;16.17;;
67456;SDS011;54319;52.038;4.640;2023-03-01T02:01:16;25.38;;;16.33;;
67456;SDS011;54319;52.038;4.640;2023-03-01T02:03:43;23.83;;;13.82;;
67456;SDS011;54319;52.038;4.640;2023-03-01T02:06:13;21.52;;;14.32;;
67456;SDS011;54319;52.038;4.640;2023-03-01T02:08:49;24.25;;;14.85;;
67456;SDS011;54319;52.038;4.640;2023-03-01T02:11:18;25.00;;;13.95;;
67456;SDS011;54319;52.038;4.640;2023-03-01T02:13:47;23.48;;;14.23;;
67456;SDS011;54319;52.038;4.640;2023-03-01T02:16:14;23.60;;;14.52;;
67456;SDS011;54319;52.038;4.640;2023-03-01T02:18:42;22.80;;;14.52;;
67456;SDS011;54319;52.038;4.640;2023-03-01T02:21:13;23.50;;;14.38;;
67456;SDS011;54319;52.038;4.640;2023-03-01T02:23:52;22.90;;;13.52;;
67456;SDS011;54319;52.038;4.640;2023-03-01T02:26:23;24.15;;;14.75;;
67456;SDS011;54319;52.038;4.640;2023-03-01T02:28:59;22.27;;;13.98;;
67456;SDS011;54319;52.038;4.640;2023-03-01T02:31:26;26.70;;;14.27;;
67456;SDS011;54319;52.038;4.640;2023-03-01T02:34:08;25.35;;;14.75;;
67456;SDS011;54319;52.038;4.640;2023-03-01T02:36:38;24.23;;;13.82;;
67456;SDS011;54319;52.038;4.640;2023-03-01T02:39:08;23.30;;;13.57;;
67456;SDS011;54319;52.038;4.640;2023-03-01T02:41:39;26.13;;;14.55;;
67456;SDS011;54319;52.038;4.640;2023-03-01T02:44:11;25.05;;;15.63;;
67456;SDS011;54319;52.038;4.640;2023-03-01T02:46:42;25.88;;;15.73;;
67456;SDS011;54319;52.038;4.640;2023-03-01T02:49:22;26.25;;;15.35;;
67456;SDS011;54319;52.038;4.640;2023-03-01T02:52:04;27.98;;;15.75;;
67456;SDS011;54319;52.038;4.640;2023-03-01T02:54:40;28.90;;;15.75;;
67456;SDS011;54319;52.038;4.640;2023-03-01T02:57:12;25.20;;;16.08;;
67456;SDS011;54319;52.038;4.640;2023-03-01T02:59:41;27.52;;;16.63;;
67456;SDS011;54319;52.038;4.640;2023-03-01T03:02:18;27.90;;;16.60;;
67456;SDS011;54319;52.038;4.640;2023-03-01T03:05:00;27.92;;;16.73;;
67456;SDS011;54319;52.038;4.640;2023-03-01T03:09:54;25.13;;;15.93;;
67456;SDS011;54319;52.038;4.640;2023-03-01T03:12:21;23.52;;;14.50;;
67456;SDS011;54319;52.038;4.640;2023-03-01T03:14:49;31.70;;;16.83;;
67456;SDS011;54319;52.038;4.640;2023-03-01T03:17:16;24.92;;;15.30;;
67456;SDS011;54319;52.038;4.640;2023-03-01T03:19:42;29.92;;;17.15;;
67456;SDS011;54319;52.038;4.640;2023-03-01T03:24:36;27.63;;;16.48;;
67456;SDS011;54319;52.038;4.640;2023-03-01T03:27:04;25.02;;;15.52;;
67456;SDS011;54319;52.038;4.640;2023-03-01T03:29:31;33.67;;;16.98;;
67456;SDS011;54319;52.038;4.640;2023-03-01T03:31:59;29.00;;;16.35;;
67456;SDS011;54319;52.038;4.640;2023-03-01T03:34:26;26.25;;;15.68;;
67456;SDS011;54319;52.038;4.640;2023-03-01T03:36:53;31.55;;;16.50;;
67456;SDS011;54319;52.038;4.640;2023-03-01T03:39:23;27.02;;;15.48;;
67456;SDS011;54319;52.038;4.640;2023-03-01T03:41:49;31.00;;;15.73;;
67456;SDS011;54319;52.038;4.640;2023-03-01T03:44:16;31.65;;;16.95;;
67456;SDS011;54319;52.038;4.640;2023-03-01T03:46:42;29.23;;;16.83;;
67456;SDS011;54319;52.038;4.640;2023-03-01T03:49:10;28.13;;;16.15;;
67456;SDS011;54319;52.038;4.640;2023-03-01T03:51:37;30.27;;;17.00;;
67456;SDS011;54319;52.038;4.640;2023-03-01T03:54:04;32.30;;;16.42;;
67456;SDS011;54319;52.038;4.640;2023-03-01T03:56:30;26.23;;;15.40;;
67456;SDS011;54319;52.038;4.640;2023-03-01T03:58:57;31.88;;;16.83;;
67456;SDS011;54319;52.038;4.640;2023-03-01T04:01:24;27.80;;;15.98;;
67456;SDS011;54319;52.038;4.640;2023-03-01T04:03:51;29.35;;;17.38;;
67456;SDS011;54319;52.038;4.640;2023-03-01T04:06:20;29.05;;;16.40;;
67456;SDS011;54319;52.038;4.640;2023-03-01T04:08:47;26.42;;;15.93;;
67456;SDS011;54319;52.038;4.640;2023-03-01T04:11:16;27.75;;;16.65;;
67456;SDS011;54319;52.038;4.640;2023-03-01T04:13:55;27.42;;;16.48;;
67456;SDS011;54319;52.038;4.640;2023-03-01T04:16:23;27.58;;;16.33;;
67456;SDS011;54319;52.038;4.640;2023-03-01T04:18:50;31.25;;;17.60;;
67456;SDS011;54319;52.038;4.640;2023-03-01T04:21:18;31.40;;;19.13;;
67456;SDS011;54319;52.038;4.640;2023-03-01T04:23:47;29.33;;;16.75;;
67456;SDS011;54319;52.038;4.640;2023-03-01T04:26:17;35.10;;;16.77;;
67456;SDS011;54319;52.038;4.640;2023-03-01T04:28:44;35.67;;;18.10;;
67456;SDS011;54319;52.038;4.640;2023-03-01T04:31:13;36.22;;;16.77;;
67456;SDS011;54319;52.038;4.640;2023-03-01T04:33:44;33.47;;;17.73;;
67456;SDS011;54319;52.038;4.640;2023-03-01T04:36:13;40.15;;;19.38;;
67456;SDS011;54319;52.038;4.640;2023-03-01T04:38:44;34.88;;;18.50;;
67456;SDS011;54319;52.038;4.640;2023-03-01T04:41:12;40.40;;;19.55;;
67456;SDS011;54319;52.038;4.640;2023-03-01T04:43:39;40.22;;;19.83;;
67456;SDS011;54319;52.038;4.640;2023-03-01T04:46:06;34.00;;;17.55;;
67456;SDS011;54319;52.038;4.640;2023-03-01T04:48:35;36.92;;;17.98;;
67456;SDS011;54319;52.038;4.640;2023-03-01T04:51:02;47.83;;;19.27;;
67456;SDS011;54319;52.038;4.640;2023-03-01T04:53:30;42.03;;;20.20;;
67456;SDS011;54319;52.038;4.640;2023-03-01T04:55:59;40.55;;;19.88;;
67456;SDS011;54319;52.038;4.640;2023-03-01T04:58:26;38.92;;;18.58;;
67456;SDS011;54319;52.038;4.640;2023-03-01T05:00:53;40.10;;;17.60;;
67456;SDS011;54319;52.038;4.640;2023-03-01T05:03:21;34.78;;;16.95;;
67456;SDS011;54319;52.038;4.640;2023-03-01T05:05:48;25.90;;;16.33;;
67456;SDS011;54319;52.038;4.640;2023-03-01T05:08:16;26.08;;;14.82;;
67456;SDS011;54319;52.038;4.640;2023-03-01T05:10:44;22.50;;;13.20;;
67456;SDS011;54319;52.038;4.640;2023-03-01T05:13:13;21.02;;;14.15;;
67456;SDS011;54319;52.038;4.640;2023-03-01T05:15:46;19.42;;;13.15;;
67456;SDS011;54319;52.038;4.640;2023-03-01T05:18:13;21.20;;;13.88;;
67456;SDS011;54319;52.038;4.640;2023-03-01T05:20:40;20.17;;;13.67;;
67456;SDS011;54319;52.038;4.640;2023-03-01T05:23:06;25.70;;;15.30;;
67456;SDS011;54319;52.038;4.640;2023-03-01T05:25:33;22.90;;;14.27;;
67456;SDS011;54319;52.038;4.640;2023-03-01T05:28:06;22.40;;;14.38;;
67456;SDS011;54319;52.038;4.640;2023-03-01T05:30:38;20.45;;;13.07;;
67456;SDS011;54319;52.038;4.640;2023-03-01T05:33:07;28.13;;;15.27;;
67456;SDS011;54319;52.038;4.640;2023-03-01T05:35:38;26.48;;;15.55;;
67456;SDS011;54319;52.038;4.640;2023-03-01T05:38:06;25.55;;;14.65;;
67456;SDS011;54319;52.038;4.640;2023-03-01T05:40:33;25.52;;;14.75;;
67456;SDS011;54319;52.038;4.640;2023-03-01T05:43:00;22.80;;;13.20;;
67456;SDS011;54319;52.038;4.640;2023-03-01T05:45:30;24.42;;;14.90;;
67456;SDS011;54319;52.038;4.640;2023-03-01T05:47:59;21.40;;;14.48;;
67456;SDS011;54319;52.038;4.640;2023-03-01T05:50:27;24.05;;;13.95;;
67456;SDS011;54319;52.038;4.640;2023-03-01T05:52:57;25.42;;;15.27;;
67456;SDS011;54319;52.038;4.640;2023-03-01T05:55:25;26.10;;;15.25;;
67456;SDS011;54319;52.038;4.640;2023-03-01T05:57:55;28.92;;;15.73;;
67456;SDS011;54319;52.038;4.640;2023-03-01T06:00:24;23.25;;;14.48;;
67456;SDS011;54319;52.038;4.640;2023-03-01T06:02:53;23.95;;;14.27;;
67456;SDS011;54319;52.038;4.640;2023-03-01T06:05:21;21.85;;;13.80;;
67456;SDS011;54319;52.038;4.640;2023-03-01T06:07:49;22.15;;;14.07;;
67456;SDS011;54319;52.038;4.640;2023-03-01T06:10:16;22.07;;;14.07;;
67456;SDS011;54319;52.038;4.640;2023-03-01T06:12:43;19.55;;;12.43;;
67456;SDS011;54319;52.038;4.640;2023-03-01T06:15:11;18.10;;;12.57;;
67456;SDS011;54319;52.038;4.640;2023-03-01T06:17:40;19.38;;;12.07;;
67456;SDS011;54319;52.038;4.640;2023-03-01T06:20:09;19.25;;;12.43;;
67456;SDS011;54319;52.038;4.640;2023-03-01T06:22:38;19.70;;;12.93;;
67456;SDS011;54319;52.038;4.640;2023-03-01T06:25:05;20.08;;;12.80;;
67456;SDS011;54319;52.038;4.640;2023-03-01T06:27:33;19.02;;;13.27;;
67456;SDS011;54319;52.038;4.640;2023-03-01T06:29:59;18.48;;;12.15;;
67456;SDS011;54319;52.038;4.640;2023-03-01T06:32:26;21.10;;;13.60;;
67456;SDS011;54319;52.038;4.640;2023-03-01T06:34:53;19.00;;;11.85;;
67456;SDS011;54319;52.038;4.640;2023-03-01T06:37:19;17.58;;;12.32;;
67456;SDS011;54319;52.038;4.640;2023-03-01T06:39:47;18.13;;;12.38;;
67456;SDS011;54319;52.038;4.640;2023-03-01T06:42:14;18.67;;;13.02;;
67456;SDS011;54319;52.038;4.640;2023-03-01T06:44:41;23.45;;;13.88;;
67456;SDS011;54319;52.038;4.640;2023-03-01T06:47:08;21.95;;;13.40;;
67456;SDS011;54319;52.038;4.640;2023-03-01T06:49:35;20.05;;;12.90;;
67456;SDS011;54319;52.038;4.640;2023-03-01T06:52:02;24.02;;;14.38;;
67456;SDS011;54319;52.038;4.640;2023-03-01T06:54:28;21.65;;;14.05;;
67456;SDS011;54319;52.038;4.640;2023-03-01T06:56:56;18.08;;;12.50;;
67456;SDS011;54319;52.038;4.640;2023-03-01T06:59:23;21.13;;;13.07;;
67456;SDS011;54319;52.038;4.640;2023-03-01T07:01:51;20.55;;;13.88;;
67456;SDS011;54319;52.038;4.640;2023-03-01T07:06:43;20.38;;;13.18;;
67456;SDS011;54319;52.038;4.640;2023-03-01T07:09:10;22.73;;;14.07;;
67456;SDS011;54319;52.038;4.640;2023-03-01T07:11:37;24.58;;;14.30;;
67456;SDS011;54319;52.038;4.640;2023-03-01T07:14:05;22.02;;;13.55;;
67456;SDS011;54319;52.038;4.640;2023-03-01T07:16:31;22.05;;;14.10;;
67456;SDS011;54319;52.038;4.640;2023-03-01T07:18:58;23.00;;;14.52;;
67456;SDS011;54319;52.038;4.640;2023-03-01T07:21:25;21.42;;;14.50;;
67456;SDS011;54319;52.038;4.640;2023-03-01T07:23:51;26.55;;;15.60;;
67456;SDS011;54319;52.038;4.640;2023-03-01T07:26:18;24.55;;;15.85;;
67456;SDS011;54319;52.038;4.640;2023-03-01T07:28:45;24.05;;;14.65;;
67456;SDS011;54319;52.038;4.640;2023-03-01T07:31:13;21.55;;;14.98;;
67456;SDS011;54319;52.038;4.640;2023-03-01T07:33:40;23.42;;;15.38;;
67456;SDS011;54319;52.038;4.640;2023-03-01T07:36:07;23.70;;;15.52;;
67456;SDS011;54319;52.038;4.640;2023-03-01T07:38:35;23.90;;;15.40;;
67456;SDS011;54319;52.038;4.640;2023-03-01T07:41:02;22.73;;;15.52;;
67456;SDS011;54319;52.038;4.640;2023-03-01T07:43:30;27.15;;;15.88;;
67456;SDS011;54319;52.038;4.640;2023-03-01T07:45:58;25.48;;;15.65;;
67456;SDS011;54319;52.038;4.640;2023-03-01T07:48:26;25.10;;;15.32;;
67456;SDS011;54319;52.038;4.640;2023-03-01T07:50:53;26.75;;;15.63;;
67456;SDS011;54319;52.038;4.640;2023-03-01T07:53:20;28.05;;;16.52;;
67456;SDS011;54319;52.038;4.640;2023-03-01T07:55:47;28.40;;;15.88;;
67456;SDS011;54319;52.038;4.640;2023-03-01T07:58:13;34.38;;;18.38;;
67456;SDS011;54319;52.038;4.640;2023-03-01T08:00:44;37.42;;;19.88;;
67456;SDS011;54319;52.038;4.640;2023-03-01T08:05:38;38.78;;;20.73;;
67456;SDS011;54319;52.038;4.640;2023-03-01T08:08:05;39.70;;;19.40;;
67456;SDS011;54319;52.038;4.640;2023-03-01T08:10:32;23.35;;;15.38;;
67456;SDS011;54319;52.038;4.640;2023-03-01T08:12:58;22.83;;;13.90;;
67456;SDS011;54319;52.038;4.640;2023-03-01T08:15:25;21.08;;;13.40;;
67456;SDS011;54319;52.038;4.640;2023-03-01T08:17:52;18.67;;;12.32;;
67456;SDS011;54319;52.038;4.640;2023-03-01T08:20:18;18.95;;;12.40;;
67456;SDS011;54319;52.038;4.640;2023-03-01T08:22:46;18.08;;;11.73;;
67456;SDS011;54319;52.038;4.640;2023-03-01T08:25:13;20.92;;;13.13;;
67456;SDS011;54319;52.038;4.640;2023-03-01T08:27:39;22.33;;;11.30;;
67456;SDS011;54319;52.038;4.640;2023-03-01T08:30:06;17.95;;;10.48;;
67456;SDS011;54319;52.038;4.640;2023-03-01T08:32:37;17.75;;;10.10;;
67456;SDS011;54319;52.038;4.640;2023-03-01T08:35:04;20.08;;;10.93;;
67456;SDS011;54319;52.038;4.640;2023-03-01T08:37:32;21.00;;;10.40;;
67456;SDS011;54319;52.038;4.640;2023-03-01T08:40:01;15.05;;;10.23;;
67456;SDS011;54319;52.038;4.640;2023-03-01T08:42:28;16.17;;;10.15;;
67456;SDS011;54319;52.038;4.640;2023-03-01T08:44:55;15.90;;;10.20;;
67456;SDS011;54319;52.038;4.640;2023-03-01T08:47:24;17.00;;;9.90;;
67456;SDS011;54319;52.038;4.640;2023-03-01T08:49:51;15.25;;;9.98;;
67456;SDS011;54319;52.038;4.640;2023-03-01T08:52:18;14.23;;;9.88;;
67456;SDS011;54319;52.038;4.640;2023-03-01T08:54:52;15.25;;;9.75;;
67456;SDS011;54319;52.038;4.640;2023-03-01T08:57:20;16.23;;;9.50;;
67456;SDS011;54319;52.038;4.640;2023-03-01T08:59:48;16.80;;;10.20;;
67456;SDS011;54319;52.038;4.640;2023-03-01T09:02:15;14.32;;;8.80;;
67456;SDS011;54319;52.038;4.640;2023-03-01T09:04:44;14.95;;;8.88;;
67456;SDS011;54319;52.038;4.640;2023-03-01T09:07:10;13.87;;;8.90;;
67456;SDS011;54319;52.038;4.640;2023-03-01T09:09:37;10.65;;;7.85;;
67456;SDS011;54319;52.038;4.640;2023-03-01T09:12:04;14.25;;;8.40;;
67456;SDS011;54319;52.038;4.640;2023-03-01T09:14:33;11.95;;;7.90;;
67456;SDS011;54319;52.038;4.640;2023-03-01T09:17:02;10.95;;;7.47;;
67456;SDS011;54319;52.038;4.640;2023-03-01T09:19:28;12.25;;;7.35;;
67456;SDS011;54319;52.038;4.640;2023-03-01T09:21:55;13.25;;;7.30;;
67456;SDS011;54319;52.038;4.640;2023-03-01T09:26:52;9.65;;;6.47;;
67456;SDS011;54319;52.038;4.640;2023-03-01T09:29:19;9.55;;;6.53;;
67456;SDS011;54319;52.038;4.640;2023-03-01T09:31:48;10.18;;;6.07;;
67456;SDS011;54319;52.038;4.640;2023-03-01T09:34:15;13.57;;;6.45;;
67456;SDS011;54319;52.038;4.640;2023-03-01T09:36:49;9.48;;;6.45;;
67456;SDS011;54319;52.038;4.640;2023-03-01T09:39:16;11.23;;;6.47;;
67456;SDS011;54319;52.038;4.640;2023-03-01T09:41:45;10.52;;;5.88;;
67456;SDS011;54319;52.038;4.640;2023-03-01T09:44:20;8.55;;;5.93;;
67456;SDS011;54319;52.038;4.640;2023-03-01T09:46:58;8.40;;;5.78;;
67456;SDS011;54319;52.038;4.640;2023-03-01T09:49:27;8.00;;;5.57;;
67456;SDS011;54319;52.038;4.640;2023-03-01T09:51:57;8.75;;;5.82;;
67456;SDS011;54319;52.038;4.640;2023-03-01T09:54:27;7.43;;;5.50;;
67456;SDS011;54319;52.038;4.640;2023-03-01T09:56:57;10.50;;;5.88;;
67456;SDS011;54319;52.038;4.640;2023-03-01T09:59:31;8.93;;;5.90;;
67456;SDS011;54319;52.038;4.640;2023-03-01T10:02:16;8.70;;;5.68;;
67456;SDS011;54319;52.038;4.640;2023-03-01T10:04:53;7.47;;;4.95;;
67456;SDS011;54319;52.038;4.640;2023-03-01T10:07:27;8.73;;;5.32;;
67456;SDS011;54319;52.038;4.640;2023-03-01T10:10:00;8.50;;;5.30;;
67456;SDS011;54319;52.038;4.640;2023-03-01T10:12:31;7.38;;;5.28;;
67456;SDS011;54319;52.038;4.640;2023-03-01T10:15:02;8.38;;;5.75;;
67456;SDS011;54319;52.038;4.640;2023-03-01T10:17:39;8.43;;;6.00;;
67456;SDS011;54319;52.038;4.640;2023-03-01T10:20:16;7.85;;;5.50;;
67456;SDS011;54319;52.038;4.640;2023-03-01T10:22:45;9.90;;;5.65;;
67456;SDS011;54319;52.038;4.640;2023-03-01T10:25:15;8.20;;;5.40;;
67456;SDS011;54319;52.038;4.640;2023-03-01T10:27:49;9.30;;;5.55;;
67456;SDS011;54319;52.038;4.640;2023-03-01T10:30:19;10.02;;;6.18;;
67456;SDS011;54319;52.038;4.640;2023-03-01T10:32:51;10.18;;;6.43;;
67456;SDS011;54319;52.038;4.640;2023-03-01T10:35:20;12.23;;;7.45;;
67456;SDS011;54319;52.038;4.640;2023-03-01T10:37:58;11.93;;;7.30;;
67456;SDS011;54319;52.038;4.640;2023-03-01T10:40:30;11.05;;;7.05;;
67456;SDS011;54319;52.038;4.640;2023-03-01T10:42:57;10.73;;;7.18;;
67456;SDS011;54319;52.038;4.640;2023-03-01T10:45:31;9.63;;;6.22;;
67456;SDS011;54319;52.038;4.640;2023-03-01T10:48:08;12.05;;;6.72;;
67456;SDS011;54319;52.038;4.640;2023-03-01T10:50:39;11.13;;;7.03;;
67456;SDS011;54319;52.038;4.640;2023-03-01T10:53:14;9.35;;;6.22;;
67456;SDS011;54319;52.038;4.640;2023-03-01T10:55:47;9.77;;;6.35;;
67456;SDS011;54319;52.038;4.640;2023-03-01T10:58:27;12.32;;;6.95;;
67456;SDS011;54319;52.038;4.640;2023-03-01T11:00:55;10.90;;;6.75;;
67456;SDS011;54319;52.038;4.640;2023-03-01T11:03:24;9.82;;;6.40;;
67456;SDS011;54319;52.038;4.640;2023-03-01T11:05:54;12.68;;;7.25;;
67456;SDS011;54319;52.038;4.640;2023-03-01T11:08:30;10.40;;;6.78;;
67456;SDS011;54319;52.038;4.640;2023-03-01T11:11:06;9.00;;;6.25;;
67456;SDS011;54319;52.038;4.640;2023-03-01T11:13:53;17.13;;;6.80;;
67456;SDS011;54319;52.038;4.640;2023-03-01T11:16:26;10.23;;;6.93;;
67456;SDS011;54319;52.038;4.640;2023-03-01T11:19:00;9.50;;;6.00;;
67456;SDS011;54319;52.038;4.640;2023-03-01T11:21:41;9.65;;;6.30;;
67456;SDS011;54319;52.038;4.640;2023-03-01T11:24:11;10.25;;;6.47;;
67456;SDS011;54319;52.038;4.640;2023-03-01T11:26:44;9.25;;;6.38;;
67456;SDS011;54319;52.038;4.640;2023-03-01T11:29:17;11.38;;;5.70;;
67456;SDS011;54319;52.038;4.640;2023-03-01T11:31:52;10.93;;;6.43;;
67456;SDS011;54319;52.038;4.640;2023-03-01T11:34:23;9.70;;;6.30;;
67456;SDS011;54319;52.038;4.640;2023-03-01T11:37:05;10.40;;;6.07;;
67456;SDS011;54319;52.038;4.640;2023-03-01T11:39:43;11.65;;;5.97;;
67456;SDS011;54319;52.038;4.640;2023-03-01T11:42:19;11.73;;;6.47;;
67456;SDS011;54319;52.038;4.640;2023-03-01T11:44:52;10.57;;;6.22;;
67456;SDS011;54319;52.038;4.640;2023-03-01T11:47:24;11.40;;;6.55;;
67456;SDS011;54319;52.038;4.640;2023-03-01T11:50:08;10.38;;;6.50;;
67456;SDS011;54319;52.038;4.640;2023-03-01T11:52:45;10.52;;;5.63;;
67456;SDS011;54319;52.038;4.640;2023-03-01T11:55:25;8.43;;;5.28;;
67456;SDS011;54319;52.038;4.640;2023-03-01T11:58:20;8.52;;;5.15;;
67456;SDS011;54319;52.038;4.640;2023-03-01T12:01:11;6.68;;;4.38;;
67456;SDS011;54319;52.038;4.640;2023-03-01T12:04:01;8.10;;;4.68;;
67456;SDS011;54319;52.038;4.640;2023-03-01T12:06:48;8.10;;;4.80;;
67456;SDS011;54319;52.038;4.640;2023-03-01T12:09:25;6.00;;;4.05;;
67456;SDS011;54319;52.038;4.640;2023-03-01T12:12:18;7.50;;;4.68;;
67456;SDS011;54319;52.038;4.640;2023-03-01T12:15:00;7.35;;;4.07;;
67456;SDS011;54319;52.038;4.640;2023-03-01T12:17:53;7.70;;;4.65;;
67456;SDS011;54319;52.038;4.640;2023-03-01T12:20:34;6.18;;;4.32;;
67456;SDS011;54319;52.038;4.640;2023-03-01T12:23:18;10.43;;;5.63;;
67456;SDS011;54319;52.038;4.640;2023-03-01T12:25:58;10.25;;;5.00;;
67456;SDS011;54319;52.038;4.640;2023-03-01T12:28:42;9.02;;;5.75;;
67456;SDS011;54319;52.038;4.640;2023-03-01T12:31:32;8.38;;;5.30;;
67456;SDS011;54319;52.038;4.640;2023-03-01T12:34:25;7.03;;;5.13;;
67456;SDS011;54319;52.038;4.640;2023-03-01T12:37:04;10.02;;;5.57;;
67456;SDS011;54319;52.038;4.640;2023-03-01T12:39:42;7.88;;;5.47;;
67456;SDS011;54319;52.038;4.640;2023-03-01T12:42:21;7.40;;;5.00;;
67456;SDS011;54319;52.038;4.640;2023-03-01T12:45:24;9.70;;;5.43;;
67456;SDS011;54319;52.038;4.640;2023-03-01T12:48:08;10.82;;;5.00;;
67456;SDS011;54319;52.038;4.640;2023-03-01T12:50:46;8.07;;;4.70;;
67456;SDS011;54319;52.038;4.640;2023-03-01T12:53:19;7.40;;;4.60;;
67456;SDS011;54319;52.038;4.640;2023-03-01T12:55:53;7.43;;;4.15;;
67456;SDS011;54319;52.038;4.640;2023-03-01T12:58:27;6.28;;;4.18;;
67456;SDS011;54319;52.038;4.640;2023-03-01T13:01:05;5.45;;;3.80;;
67456;SDS011;54319;52.038;4.640;2023-03-01T13:03:51;10.05;;;3.95;;
67456;SDS011;54319;52.038;4.640;2023-03-01T13:06:29;5.50;;;3.80;;
67456;SDS011;54319;52.038;4.640;2023-03-01T13:09:04;6.50;;;3.90;;
67456;SDS011;54319;52.038;4.640;2023-03-01T13:11:42;5.88;;;3.85;;
67456;SDS011;54319;52.038;4.640;2023-03-01T13:17:03;4.88;;;3.60;;
67456;SDS011;54319;52.038;4.640;2023-03-01T13:19:30;5.60;;;3.70;;
67456;SDS011;54319;52.038;4.640;2023-03-01T13:22:00;4.55;;;3.22;;
67456;SDS011;54319;52.038;4.640;2023-03-01T13:25:10;6.82;;;3.58;;
67456;SDS011;54319;52.038;4.640;2023-03-01T13:27:39;5.05;;;3.78;;
67456;SDS011;54319;52.038;4.640;2023-03-01T13:30:12;5.07;;;3.88;;
67456;SDS011;54319;52.038;4.640;2023-03-01T13:36:09;5.18;;;3.58;;
67456;SDS011;54319;52.038;4.640;2023-03-01T13:38:54;5.57;;;3.63;;
67456;SDS011;54319;52.038;4.640;2023-03-01T13:44:17;6.07;;;4.15;;
67456;SDS011;54319;52.038;4.640;2023-03-01T13:46:51;4.63;;;3.60;;
67456;SDS011;54319;52.038;4.640;2023-03-01T13:49:21;6.53;;;4.00;;
67456;SDS011;54319;52.038;4.640;2023-03-01T13:51:54;6.32;;;3.75;;
67456;SDS011;54319;52.038;4.640;2023-03-01T13:54:27;4.87;;;3.67;;
67456;SDS011;54319;52.038;4.640;2023-03-01T13:56:56;5.82;;;3.70;;
67456;SDS011;54319;52.038;4.640;2023-03-01T13:59:25;6.03;;;3.70;;
67456;SDS011;54319;52.038;4.640;2023-03-01T14:01:55;7.18;;;3.92;;
67456;SDS011;54319;52.038;4.640;2023-03-01T14:04:24;5.57;;;3.67;;
67456;SDS011;54319;52.038;4.640;2023-03-01T14:06:52;6.38;;;3.80;;
67456;SDS011;54319;52.038;4.640;2023-03-01T14:09:36;5.72;;;3.60;;
67456;SDS011;54319;52.038;4.640;2023-03-01T14:14:59;10.05;;;3.90;;
67456;SDS011;54319;52.038;4.640;2023-03-01T14:20:22;7.03;;;3.60;;
67456;SDS011;54319;52.038;4.640;2023-03-01T14:22:52;6.55;;;3.70;;
67456;SDS011;54319;52.038;4.640;2023-03-01T14:25:30;6.03;;;4.07;;
67456;SDS011;54319;52.038;4.640;2023-03-01T14:28:00;5.30;;;3.58;;
67456;SDS011;54319;52.038;4.640;2023-03-01T14:30:31;6.07;;;3.88;;
67456;SDS011;54319;52.038;4.640;2023-03-01T14:33:02;6.13;;;3.30;;
67456;SDS011;54319;52.038;4.640;2023-03-01T14:35:31;5.00;;;3.55;;
67456;SDS011;54319;52.038;4.640;2023-03-01T14:37:59;5.10;;;3.60;;
67456;SDS011;54319;52.038;4.640;2023-03-01T14:40:32;4.97;;;3.67;;
67456;SDS011;54319;52.038;4.640;2023-03-01T14:43:01;5.28;;;3.63;;
67456;SDS011;54319;52.038;4.640;2023-03-01T14:45:35;5.75;;;3.67;;
67456;SDS011;54319;52.038;4.640;2023-03-01T14:48:02;5.20;;;3.67;;
67456;SDS011;54319;52.038;4.640;2023-03-01T14:50:34;5.88;;;3.70;;
67456;SDS011;54319;52.038;4.640;2023-03-01T14:53:06;8.73;;;3.45;;
67456;SDS011;54319;52.038;4.640;2023-03-01T14:55:42;6.90;;;3.80;;
67456;SDS011;54319;52.038;4.640;2023-03-01T14:58:13;5.82;;;3.58;;
67456;SDS011;54319;52.038;4.640;2023-03-01T15:00:44;5.85;;;3.40;;
67456;SDS011;54319;52.038;4.640;2023-03-01T15:03:17;5.80;;;3.85;;
67456;SDS011;54319;52.038;4.640;2023-03-01T15:05:50;6.45;;;3.45;;
67456;SDS011;54319;52.038;4.640;2023-03-01T15:13:25;6.00;;;3.22;;
67456;SDS011;54319;52.038;4.640;2023-03-01T15:16:00;8.88;;;3.78;;
67456;SDS011;54319;52.038;4.640;2023-03-01T15:18:30;7.65;;;3.35;;
67456;SDS011;54319;52.038;4.640;2023-03-01T15:21:05;6.60;;;3.30;;
67456;SDS011;54319;52.038;4.640;2023-03-01T15:23:33;5.40;;;3.22;;
67456;SDS011;54319;52.038;4.640;2023-03-01T15:26:01;5.43;;;3.28;;
67456;SDS011;54319;52.038;4.640;2023-03-01T15:28:29;6.68;;;3.70;;
67456;SDS011;54319;52.038;4.640;2023-03-01T15:30:58;6.28;;;3.65;;
67456;SDS011;54319;52.038;4.640;2023-03-01T15:33:29;5.72;;;3.88;;
67456;SDS011;54319;52.038;4.640;2023-03-01T15:35:59;9.15;;;3.60;;
67456;SDS011;54319;52.038;4.640;2023-03-01T15:38:31;5.45;;;3.70;;
67456;SDS011;54319;52.038;4.640;2023-03-01T15:41:02;6.35;;;3.92;;
67456;SDS011;54319;52.038;4.640;2023-03-01T15:43:39;5.30;;;3.60;;
67456;SDS011;54319;52.038;4.640;2023-03-01T15:46:15;6.82;;;3.80;;
67456;SDS011;54319;52.038;4.640;2023-03-01T15:48:44;5.95;;;4.10;;
67456;SDS011;54319;52.038;4.640;2023-03-01T15:51:14;6.60;;;4.32;;
67456;SDS011;54319;52.038;4.640;2023-03-01T15:53:42;6.25;;;3.97;;
67456;SDS011;54319;52.038;4.640;2023-03-01T15:56:16;6.57;;;4.20;;
67456;SDS011;54319;52.038;4.640;2023-03-01T15:58:43;7.10;;;4.38;;